createdAt,value
2019-01-24T00:03:16.013Z,93971.00
2019-01-24T00:08:45.599Z,93962.00
2019-01-24T00:14:15.162Z,93968.00
2019-01-24T00:19:44.660Z,93989.00
2019-01-24T00:25:14.269Z,93993.00
2019-01-24T00:30:43.674Z,93996.00
2019-01-24T00:36:13.188Z,93990.00
2019-01-24T00:41:42.627Z,94021.00
2019-01-24T00:47:12.209Z,94016.00
2019-01-24T00:52:41.755Z,94022.00
2019-01-24T00:58:11.244Z,94029.00
2019-01-24T01:03:40.723Z,94034.00
2019-01-24T01:09:10.199Z,94039.00
2019-01-24T01:14:39.627Z,94037.00
2019-01-24T01:20:13.401Z,94052.00
2019-01-24T01:25:43.076Z,94066.00
2019-01-24T01:31:12.516Z,94076.00
2019-01-24T01:36:41.846Z,94071.00
2019-01-24T01:42:11.448Z,94075.00
2019-01-24T01:47:40.854Z,94076.00
2019-01-24T01:53:10.509Z,94071.00
2019-01-24T01:58:40.447Z,94078.00
2019-01-24T02:04:10.673Z,94082.00
2019-01-24T02:09:43.412Z,94090.00
2019-01-24T02:15:16.161Z,94094.00
2019-01-24T02:20:45.529Z,94095.00
2019-01-24T02:26:16.045Z,94100.00
2019-01-24T02:31:46.724Z,94110.00
2019-01-24T02:37:16.148Z,94103.00
2019-01-24T02:42:45.622Z,94114.00
2019-01-24T02:48:15.007Z,94117.00
2019-01-24T02:53:44.430Z,94135.00
2019-01-24T02:59:13.863Z,94137.00
2019-01-24T03:04:43.313Z,94143.00
2019-01-24T03:10:14.760Z,94146.00
2019-01-24T03:15:44.586Z,94150.00
2019-01-24T03:21:14.299Z,94157.00
2019-01-24T03:26:44.175Z,94166.00
2019-01-24T03:32:13.585Z,94167.00
2019-01-24T03:37:43.065Z,94165.00
2019-01-24T03:43:12.733Z,94172.00
2019-01-24T03:48:48.125Z,94182.00
2019-01-24T03:54:17.543Z,94181.00
2019-01-24T03:59:46.954Z,94183.00
2019-01-24T04:05:16.917Z,94201.00
2019-01-24T04:10:46.277Z,94202.00
2019-01-24T04:16:15.864Z,94216.00
2019-01-24T04:21:45.272Z,94220.00
2019-01-24T04:27:14.658Z,94222.00
2019-01-24T04:32:44.125Z,94229.00
2019-01-24T04:38:13.657Z,94237.00
2019-01-24T04:43:43.145Z,94234.00
2019-01-24T04:49:12.639Z,94241.00
2019-01-24T04:54:41.995Z,94251.00
2019-01-24T05:00:29.709Z,94251.00
2019-01-24T05:06:00.297Z,94251.00
2019-01-24T05:11:29.989Z,94262.00
2019-01-24T05:17:02.521Z,94271.00
2019-01-24T05:22:32.022Z,94276.00
2019-01-24T05:28:01.480Z,94284.00
2019-01-24T05:33:31.254Z,94281.00
2019-01-24T05:39:01.126Z,94291.00
2019-01-24T05:44:31.044Z,94296.00
2019-01-24T05:50:06.711Z,94294.00
2019-01-24T05:55:45.143Z,94300.00
2019-01-24T06:01:29.140Z,94308.00
2019-01-24T06:06:58.878Z,94325.00
2019-01-24T06:12:28.389Z,94335.00
2019-01-24T06:17:57.867Z,94348.00
2019-01-24T06:23:27.324Z,94350.00
2019-01-24T06:28:56.698Z,94355.00
2019-01-24T06:34:27.192Z,94364.00
2019-01-24T06:39:56.675Z,94359.00
2019-01-24T06:45:26.268Z,94370.00
2019-01-24T06:50:55.897Z,94371.00
2019-01-24T06:56:25.216Z,94371.00
2019-01-24T07:01:54.675Z,94376.00
2019-01-24T07:07:24.070Z,94378.00
2019-01-24T07:12:53.500Z,94393.00
2019-01-24T07:18:22.826Z,94396.00
2019-01-24T07:23:52.239Z,94403.00
2019-01-24T07:29:21.762Z,94411.00
2019-01-24T07:34:51.187Z,94408.00
2019-01-24T07:40:21.503Z,94413.00
2019-01-24T07:45:50.949Z,94415.00
2019-01-24T07:51:20.453Z,94435.00
2019-01-24T07:56:49.797Z,94427.00
2019-01-24T08:02:19.374Z,94448.00
2019-01-24T08:07:48.879Z,94442.00
2019-01-24T08:13:18.371Z,94455.00
2019-01-24T08:18:47.796Z,94449.00
2019-01-24T08:24:17.210Z,94452.00
2019-01-24T08:29:46.618Z,94459.00
2019-01-24T08:35:16.209Z,94472.00
2019-01-24T08:40:45.659Z,94471.00
2019-01-24T08:46:14.995Z,94474.00
2019-01-24T08:51:44.409Z,94475.00
2019-01-24T08:57:13.839Z,94471.00
2019-01-24T09:02:43.383Z,94473.00
2019-01-24T09:08:12.969Z,94480.00
2019-01-24T09:13:42.482Z,94483.00
2019-01-24T09:19:11.927Z,94475.00
2019-01-24T09:24:41.342Z,94487.00
2019-01-24T09:30:21.197Z,94497.00
2019-01-24T09:35:50.626Z,94503.00
2019-01-24T09:41:19.957Z,94517.00
2019-01-24T09:46:49.463Z,94508.00
2019-01-24T09:52:18.802Z,94510.00
2019-01-24T09:57:48.287Z,94517.00
2019-01-24T10:03:17.728Z,94520.00
2019-01-24T10:08:47.282Z,94525.00
2019-01-24T10:14:16.709Z,94533.00
2019-01-24T10:19:46.132Z,94528.00
2019-01-24T10:25:25.712Z,94526.00
2019-01-24T10:30:55.071Z,94540.00
2019-01-24T10:36:24.424Z,94536.00
2019-01-24T10:41:53.742Z,94539.00
2019-01-24T10:47:23.247Z,94557.00
2019-01-24T10:52:52.824Z,94539.00
2019-01-24T10:58:22.219Z,94535.00
2019-01-24T11:03:51.806Z,94545.00
2019-01-24T11:09:21.368Z,94552.00
2019-01-24T11:14:50.857Z,94553.00
2019-01-24T11:20:21.207Z,94543.00
2019-01-24T11:25:50.687Z,94543.00
2019-01-24T11:31:20.093Z,94543.00
2019-01-24T11:36:49.498Z,94534.00
2019-01-24T11:42:18.983Z,94530.00
2019-01-24T11:47:48.477Z,94529.00
2019-01-24T11:53:17.889Z,94531.00
2019-01-24T11:58:47.371Z,94539.00
2019-01-24T12:04:16.815Z,94534.00
2019-01-24T12:09:46.215Z,94531.00
2019-01-24T12:15:22.145Z,94525.00
2019-01-24T12:20:51.509Z,94524.00
2019-01-24T12:26:21.000Z,94522.00
2019-01-24T12:31:50.333Z,94531.00
2019-01-24T12:37:19.699Z,94536.00
2019-01-24T12:42:49.438Z,94539.00
2019-01-24T12:48:18.905Z,94544.00
2019-01-24T12:53:48.238Z,94542.00
2019-01-24T12:59:17.639Z,94552.00
2019-01-24T13:04:47.091Z,94557.00
2019-01-24T13:10:22.574Z,94553.00
2019-01-24T13:15:52.157Z,94560.00
2019-01-24T13:21:21.465Z,94554.00
2019-01-24T13:26:50.797Z,94557.00
2019-01-24T13:32:21.266Z,94561.00
2019-01-24T13:37:50.744Z,94569.00
2019-01-24T13:43:20.045Z,94571.00
2019-01-24T13:48:49.386Z,94583.00
2019-01-24T13:54:18.724Z,94591.00
2019-01-24T13:59:48.248Z,94588.00
2019-01-24T14:05:19.798Z,94592.00
2019-01-24T14:10:49.137Z,94596.00
2019-01-24T14:16:18.614Z,94604.00
2019-01-24T14:21:48.013Z,94604.00
2019-01-24T14:27:17.427Z,94608.00
2019-01-24T14:32:46.836Z,94610.00
2019-01-24T14:38:16.299Z,94611.00
2019-01-24T14:43:45.687Z,94613.00
2019-01-24T14:49:15.114Z,94616.00
2019-01-24T14:54:44.481Z,94635.00
2019-01-24T15:00:24.130Z,94634.00
2019-01-24T15:05:53.555Z,94639.00
2019-01-24T15:11:23.294Z,94635.00
2019-01-24T15:16:53.469Z,94641.00
2019-01-24T15:22:26.736Z,94642.00
2019-01-24T15:28:11.579Z,94639.00
2019-01-24T15:33:49.432Z,94653.00
2019-01-24T15:39:26.653Z,94657.00
2019-01-24T15:44:56.133Z,94657.00
2019-01-24T15:50:25.898Z,94669.00
2019-01-24T15:55:55.288Z,94675.00
2019-01-24T16:01:24.856Z,94681.00
2019-01-24T16:06:54.178Z,94695.00
2019-01-24T16:12:23.588Z,94700.00
2019-01-24T16:17:53.028Z,94707.00
2019-01-24T16:23:22.567Z,94711.00
2019-01-24T16:28:52.097Z,94722.00
2019-01-24T16:34:21.484Z,94729.00
2019-01-24T16:39:50.877Z,94729.00
2019-01-24T16:45:23.411Z,94735.00
2019-01-24T16:50:52.837Z,94744.00
2019-01-24T16:56:22.285Z,94753.00
2019-01-24T17:01:51.629Z,94742.00
2019-01-24T17:07:20.990Z,94756.00
2019-01-24T17:12:50.621Z,94761.00
2019-01-24T17:18:20.076Z,94762.00
2019-01-24T17:23:49.411Z,94771.00
2019-01-24T17:29:18.810Z,94768.00
2019-01-24T17:34:48.271Z,94782.00
2019-01-24T17:40:35.379Z,94779.00
2019-01-24T17:46:05.219Z,94799.00
2019-01-24T17:51:34.678Z,94792.00
2019-01-24T17:57:04.241Z,94803.00
2019-01-24T18:02:33.880Z,94809.00
2019-01-24T18:08:03.395Z,94819.00
2019-01-24T18:13:34.018Z,94826.00
2019-01-24T18:19:03.790Z,94839.00
2019-01-24T18:24:33.468Z,94824.00
2019-01-24T18:30:03.221Z,94834.00
2019-01-24T18:35:32.817Z,94836.00
2019-01-24T18:41:08.559Z,94856.00
2019-01-24T18:46:34.047Z,94851.00
2019-01-24T18:52:05.559Z,94866.00
2019-01-24T18:57:35.220Z,94870.00
2019-01-24T19:03:06.482Z,94886.00
2019-01-24T19:08:36.076Z,94877.00
2019-01-24T19:14:05.778Z,94893.00
2019-01-24T19:19:35.250Z,94894.00
2019-01-24T19:25:08.135Z,94898.00
2019-01-24T19:30:37.797Z,94902.00
2019-01-24T19:36:07.575Z,94903.00
2019-01-24T19:41:38.866Z,94912.00
2019-01-24T19:47:10.351Z,94921.00
2019-01-24T19:52:39.975Z,94918.00
2019-01-24T19:58:09.582Z,94917.00
2019-01-24T20:03:39.077Z,94922.00
2019-01-24T20:09:09.773Z,94922.00
2019-01-24T20:14:45.159Z,94925.00
2019-01-24T20:20:20.647Z,94940.00
2019-01-24T20:25:50.152Z,94946.00
2019-01-24T20:31:19.821Z,94952.00
2019-01-24T20:36:49.313Z,94959.00
2019-01-24T20:42:18.810Z,94953.00
2019-01-24T20:47:48.339Z,94970.00
2019-01-24T20:53:18.135Z,94963.00
2019-01-24T20:58:47.594Z,94967.00
2019-01-24T21:04:16.997Z,94972.00
2019-01-24T21:09:46.473Z,94973.00
2019-01-24T21:15:25.003Z,94972.00
2019-01-24T21:20:54.600Z,94971.00
2019-01-24T21:26:24.187Z,94978.00
2019-01-24T21:31:53.805Z,94992.00
2019-01-24T21:37:23.427Z,94989.00
2019-01-24T21:42:52.931Z,94993.00
2019-01-24T21:48:24.386Z,94993.00
2019-01-24T21:53:53.864Z,95005.00
2019-01-24T21:59:23.291Z,95003.00
2019-01-24T22:04:52.796Z,95014.00
2019-01-24T22:10:30.760Z,95019.00
2019-01-24T22:16:00.470Z,95024.00
2019-01-24T22:21:30.094Z,95022.00
2019-01-24T22:27:00.401Z,95039.00
2019-01-24T22:32:31.464Z,95029.00
2019-01-24T22:38:02.169Z,95038.00
2019-01-24T22:43:31.915Z,95041.00
2019-01-24T22:49:01.575Z,95036.00
2019-01-24T22:54:31.097Z,95038.00
2019-01-24T23:00:00.579Z,95039.00
2019-01-24T23:05:30.389Z,95043.00
2019-01-24T23:11:00.981Z,95045.00
2019-01-24T23:16:30.838Z,95042.00
2019-01-24T23:22:00.535Z,95039.00
2019-01-24T23:27:30.145Z,95039.00
2019-01-24T23:32:59.887Z,95033.00
2019-01-24T23:38:29.842Z,95036.00
2019-01-24T23:43:59.754Z,95050.00
2019-01-24T23:49:29.537Z,95040.00
2019-01-24T23:55:00.540Z,95043.00
